sensor_id;sensor_type;location;lat;lon;timestamp;P1;durP1;ratioP1;P2;durP2;ratioP2
59907;SDS011;61804;54.926;73.496;2023-04-24T00:00:00;12.98;;;9.32;;
59907;SDS011;61804;54.926;73.496;2023-04-24T00:02:32;16.17;;;8.63;;
59907;SDS011;61804;54.926;73.496;2023-04-24T00:05:07;10.18;;;8.98;;
59907;SDS011;61804;54.926;73.496;2023-04-24T00:07:35;16.15;;;9.93;;
59907;SDS011;61804;54.926;73.496;2023-04-24T00:10:02;11.25;;;7.93;;
59907;SDS011;61804;54.926;73.496;2023-04-24T00:12:35;12.13;;;7.60;;
59907;SDS011;61804;54.926;73.496;2023-04-24T00:15:03;10.45;;;6.72;;
59907;SDS011;61804;54.926;73.496;2023-04-24T00:17:41;16.73;;;7.53;;
59907;SDS011;61804;54.926;73.496;2023-04-24T00:20:08;10.35;;;8.27;;
59907;SDS011;61804;54.926;73.496;2023-04-24T00:22:37;20.08;;;13.05;;
59907;SDS011;61804;54.926;73.496;2023-04-24T00:25:09;11.18;;;10.05;;
59907;SDS011;61804;54.926;73.496;2023-04-24T00:27:37;20.17;;;15.27;;
59907;SDS011;61804;54.926;73.496;2023-04-24T00:30:16;25.63;;;16.85;;
59907;SDS011;61804;54.926;73.496;2023-04-24T00:32:44;14.00;;;12.02;;
59907;SDS011;61804;54.926;73.496;2023-04-24T00:35:22;19.52;;;13.55;;
59907;SDS011;61804;54.926;73.496;2023-04-24T00:37:55;16.45;;;10.88;;
59907;SDS011;61804;54.926;73.496;2023-04-24T00:40:23;12.52;;;11.23;;
59907;SDS011;61804;54.926;73.496;2023-04-24T00:42:51;12.10;;;10.50;;
59907;SDS011;61804;54.926;73.496;2023-04-24T00:45:25;18.00;;;13.43;;
59907;SDS011;61804;54.926;73.496;2023-04-24T00:47:54;25.27;;;18.73;;
59907;SDS011;61804;54.926;73.496;2023-04-24T00:50:22;28.67;;;18.50;;
59907;SDS011;61804;54.926;73.496;2023-04-24T00:52:50;53.75;;;33.45;;
59907;SDS011;61804;54.926;73.496;2023-04-24T00:55:23;30.65;;;22.75;;
59907;SDS011;61804;54.926;73.496;2023-04-24T00:58:02;29.60;;;20.50;;
59907;SDS011;61804;54.926;73.496;2023-04-24T01:00:30;26.33;;;20.30;;
59907;SDS011;61804;54.926;73.496;2023-04-24T01:02:59;40.45;;;26.23;;
59907;SDS011;61804;54.926;73.496;2023-04-24T01:05:28;27.45;;;19.40;;
59907;SDS011;61804;54.926;73.496;2023-04-24T01:07:57;33.75;;;17.17;;
59907;SDS011;61804;54.926;73.496;2023-04-24T01:10:26;23.45;;;16.30;;
59907;SDS011;61804;54.926;73.496;2023-04-24T01:12:54;18.90;;;11.70;;
59907;SDS011;61804;54.926;73.496;2023-04-24T01:15:22;28.58;;;20.83;;
59907;SDS011;61804;54.926;73.496;2023-04-24T01:17:49;23.95;;;18.10;;
59907;SDS011;61804;54.926;73.496;2023-04-24T01:20:17;18.38;;;11.98;;
59907;SDS011;61804;54.926;73.496;2023-04-24T01:22:46;14.60;;;12.48;;
59907;SDS011;61804;54.926;73.496;2023-04-24T01:25:16;22.92;;;14.85;;
59907;SDS011;61804;54.926;73.496;2023-04-24T01:27:44;15.52;;;9.98;;
59907;SDS011;61804;54.926;73.496;2023-04-24T01:30:21;10.02;;;8.70;;
59907;SDS011;61804;54.926;73.496;2023-04-24T01:32:52;18.67;;;9.05;;
59907;SDS011;61804;54.926;73.496;2023-04-24T01:35:20;10.98;;;6.78;;
59907;SDS011;61804;54.926;73.496;2023-04-24T01:37:47;18.33;;;9.15;;
59907;SDS011;61804;54.926;73.496;2023-04-24T01:40:15;6.60;;;6.00;;
59907;SDS011;61804;54.926;73.496;2023-04-24T01:42:53;12.00;;;7.20;;
59907;SDS011;61804;54.926;73.496;2023-04-24T01:45:21;14.88;;;6.60;;
59907;SDS011;61804;54.926;73.496;2023-04-24T01:47:51;8.80;;;7.90;;
59907;SDS011;61804;54.926;73.496;2023-04-24T01:50:19;11.30;;;9.05;;
59907;SDS011;61804;54.926;73.496;2023-04-24T01:52:46;18.05;;;10.57;;
59907;SDS011;61804;54.926;73.496;2023-04-24T01:55:19;10.13;;;7.78;;
59907;SDS011;61804;54.926;73.496;2023-04-24T01:57:57;13.02;;;10.80;;
59907;SDS011;61804;54.926;73.496;2023-04-24T02:00:32;18.20;;;13.83;;
59907;SDS011;61804;54.926;73.496;2023-04-24T02:03:00;17.63;;;14.63;;
59907;SDS011;61804;54.926;73.496;2023-04-24T02:05:29;20.45;;;14.18;;
59907;SDS011;61804;54.926;73.496;2023-04-24T02:08:02;17.73;;;12.85;;
59907;SDS011;61804;54.926;73.496;2023-04-24T02:10:32;35.75;;;15.68;;
59907;SDS011;61804;54.926;73.496;2023-04-24T02:13:00;17.60;;;10.32;;
59907;SDS011;61804;54.926;73.496;2023-04-24T02:15:28;19.65;;;12.93;;
59907;SDS011;61804;54.926;73.496;2023-04-24T02:18:06;9.98;;;7.60;;
59907;SDS011;61804;54.926;73.496;2023-04-24T02:20:35;9.65;;;5.88;;
59907;SDS011;61804;54.926;73.496;2023-04-24T02:23:03;16.40;;;7.13;;
59907;SDS011;61804;54.926;73.496;2023-04-24T02:25:33;12.38;;;6.80;;
59907;SDS011;61804;54.926;73.496;2023-04-24T02:28:01;13.48;;;7.78;;
59907;SDS011;61804;54.926;73.496;2023-04-24T02:30:40;13.77;;;8.82;;
59907;SDS011;61804;54.926;73.496;2023-04-24T02:33:07;14.05;;;7.70;;
59907;SDS011;61804;54.926;73.496;2023-04-24T02:35:35;8.30;;;7.32;;
59907;SDS011;61804;54.926;73.496;2023-04-24T02:38:03;16.45;;;6.00;;
59907;SDS011;61804;54.926;73.496;2023-04-24T02:40:31;6.05;;;5.35;;
59907;SDS011;61804;54.926;73.496;2023-04-24T02:42:59;7.50;;;5.80;;
59907;SDS011;61804;54.926;73.496;2023-04-24T02:45:27;10.85;;;7.28;;
59907;SDS011;61804;54.926;73.496;2023-04-24T02:47:55;10.68;;;6.18;;
59907;SDS011;61804;54.926;73.496;2023-04-24T02:50:33;9.43;;;7.30;;
59907;SDS011;61804;54.926;73.496;2023-04-24T02:53:06;35.25;;;11.00;;
59907;SDS011;61804;54.926;73.496;2023-04-24T02:55:33;9.52;;;6.55;;
59907;SDS011;61804;54.926;73.496;2023-04-24T02:58:07;12.55;;;7.22;;
59907;SDS011;61804;54.926;73.496;2023-04-24T03:00:35;36.88;;;8.32;;
59907;SDS011;61804;54.926;73.496;2023-04-24T03:03:03;9.13;;;5.55;;
59907;SDS011;61804;54.926;73.496;2023-04-24T03:05:30;12.23;;;7.28;;
59907;SDS011;61804;54.926;73.496;2023-04-24T03:07:58;12.20;;;6.30;;
59907;SDS011;61804;54.926;73.496;2023-04-24T03:10:26;32.22;;;9.45;;
59907;SDS011;61804;54.926;73.496;2023-04-24T03:12:54;16.33;;;7.68;;
59907;SDS011;61804;54.926;73.496;2023-04-24T03:15:22;13.43;;;8.43;;
59907;SDS011;61804;54.926;73.496;2023-04-24T03:17:55;15.80;;;9.52;;
59907;SDS011;61804;54.926;73.496;2023-04-24T03:20:22;26.70;;;9.18;;
59907;SDS011;61804;54.926;73.496;2023-04-24T03:22:56;24.08;;;9.13;;
59907;SDS011;61804;54.926;73.496;2023-04-24T03:25:29;9.05;;;7.80;;
59907;SDS011;61804;54.926;73.496;2023-04-24T03:28:03;8.13;;;5.50;;
59907;SDS011;61804;54.926;73.496;2023-04-24T03:30:45;13.10;;;7.50;;
59907;SDS011;61804;54.926;73.496;2023-04-24T03:33:13;10.82;;;5.85;;
59907;SDS011;61804;54.926;73.496;2023-04-24T03:35:49;12.35;;;6.32;;
59907;SDS011;61804;54.926;73.496;2023-04-24T03:38:17;17.77;;;7.32;;
59907;SDS011;61804;54.926;73.496;2023-04-24T03:40:57;16.55;;;6.20;;
59907;SDS011;61804;54.926;73.496;2023-04-24T03:43:46;37.05;;;8.82;;
59907;SDS011;61804;54.926;73.496;2023-04-24T03:46:15;15.05;;;7.93;;
59907;SDS011;61804;54.926;73.496;2023-04-24T03:48:50;25.75;;;8.93;;
59907;SDS011;61804;54.926;73.496;2023-04-24T03:51:26;8.32;;;5.72;;
59907;SDS011;61804;54.926;73.496;2023-04-24T03:54:04;11.23;;;5.28;;
59907;SDS011;61804;54.926;73.496;2023-04-24T03:56:35;10.30;;;6.22;;
59907;SDS011;61804;54.926;73.496;2023-04-24T03:59:07;14.90;;;6.32;;
59907;SDS011;61804;54.926;73.496;2023-04-24T04:01:46;13.65;;;7.90;;
59907;SDS011;61804;54.926;73.496;2023-04-24T04:04:16;41.38;;;15.27;;
59907;SDS011;61804;54.926;73.496;2023-04-24T04:06:56;65.43;;;10.05;;
59907;SDS011;61804;54.926;73.496;2023-04-24T04:09:29;9.75;;;6.18;;
59907;SDS011;61804;54.926;73.496;2023-04-24T04:11:58;17.73;;;8.38;;
59907;SDS011;61804;54.926;73.496;2023-04-24T04:14:27;13.52;;;7.63;;
59907;SDS011;61804;54.926;73.496;2023-04-24T04:16:56;12.80;;;8.38;;
59907;SDS011;61804;54.926;73.496;2023-04-24T04:19:24;18.33;;;9.18;;
59907;SDS011;61804;54.926;73.496;2023-04-24T04:21:52;12.52;;;8.10;;
59907;SDS011;61804;54.926;73.496;2023-04-24T04:24:40;10.25;;;7.80;;
59907;SDS011;61804;54.926;73.496;2023-04-24T04:27:10;16.73;;;7.20;;
59907;SDS011;61804;54.926;73.496;2023-04-24T04:30:00;23.80;;;7.88;;
59907;SDS011;61804;54.926;73.496;2023-04-24T04:32:38;17.70;;;8.68;;
59907;SDS011;61804;54.926;73.496;2023-04-24T04:35:08;20.38;;;9.15;;
59907;SDS011;61804;54.926;73.496;2023-04-24T04:37:37;18.67;;;10.25;;
59907;SDS011;61804;54.926;73.496;2023-04-24T04:40:14;15.55;;;7.20;;
59907;SDS011;61804;54.926;73.496;2023-04-24T04:42:51;25.77;;;9.90;;
59907;SDS011;61804;54.926;73.496;2023-04-24T04:45:22;20.90;;;6.68;;
59907;SDS011;61804;54.926;73.496;2023-04-24T04:48:10;11.55;;;7.43;;
59907;SDS011;61804;54.926;73.496;2023-04-24T04:50:41;19.20;;;7.97;;
59907;SDS011;61804;54.926;73.496;2023-04-24T04:53:10;8.55;;;7.07;;
59907;SDS011;61804;54.926;73.496;2023-04-24T04:55:40;24.08;;;9.35;;
59907;SDS011;61804;54.926;73.496;2023-04-24T04:58:18;18.95;;;8.57;;
59907;SDS011;61804;54.926;73.496;2023-04-24T05:00:50;25.25;;;8.90;;
59907;SDS011;61804;54.926;73.496;2023-04-24T05:03:26;13.32;;;9.48;;
59907;SDS011;61804;54.926;73.496;2023-04-24T05:06:06;18.58;;;8.85;;
59907;SDS011;61804;54.926;73.496;2023-04-24T05:08:47;17.63;;;6.63;;
59907;SDS011;61804;54.926;73.496;2023-04-24T05:11:37;12.38;;;6.43;;
59907;SDS011;61804;54.926;73.496;2023-04-24T05:14:05;26.33;;;7.68;;
59907;SDS011;61804;54.926;73.496;2023-04-24T05:16:37;5.30;;;4.80;;
59907;SDS011;61804;54.926;73.496;2023-04-24T05:19:05;19.60;;;6.10;;
59907;SDS011;61804;54.926;73.496;2023-04-24T05:21:44;9.43;;;5.38;;
59907;SDS011;61804;54.926;73.496;2023-04-24T05:24:12;7.43;;;6.07;;
59907;SDS011;61804;54.926;73.496;2023-04-24T05:27:15;9.43;;;5.57;;
59907;SDS011;61804;54.926;73.496;2023-04-24T05:29:42;9.95;;;6.07;;
59907;SDS011;61804;54.926;73.496;2023-04-24T05:32:14;6.97;;;5.25;;
59907;SDS011;61804;54.926;73.496;2023-04-24T05:34:59;13.68;;;6.35;;
59907;SDS011;61804;54.926;73.496;2023-04-24T05:37:33;9.95;;;5.90;;
59907;SDS011;61804;54.926;73.496;2023-04-24T05:40:01;18.83;;;5.82;;
59907;SDS011;61804;54.926;73.496;2023-04-24T05:42:29;21.13;;;7.85;;
59907;SDS011;61804;54.926;73.496;2023-04-24T05:45:07;6.15;;;4.53;;
59907;SDS011;61804;54.926;73.496;2023-04-24T05:47:36;20.52;;;7.13;;
59907;SDS011;61804;54.926;73.496;2023-04-24T05:50:03;11.00;;;4.68;;
59907;SDS011;61804;54.926;73.496;2023-04-24T05:52:31;16.58;;;6.20;;
59907;SDS011;61804;54.926;73.496;2023-04-24T05:54:59;16.90;;;5.80;;
59907;SDS011;61804;54.926;73.496;2023-04-24T05:57:32;7.03;;;4.28;;
59907;SDS011;61804;54.926;73.496;2023-04-24T06:00:14;28.38;;;6.93;;
59907;SDS011;61804;54.926;73.496;2023-04-24T06:02:50;93.25;;;19.27;;
59907;SDS011;61804;54.926;73.496;2023-04-24T06:05:23;14.82;;;4.03;;
59907;SDS011;61804;54.926;73.496;2023-04-24T06:07:53;16.23;;;7.63;;
59907;SDS011;61804;54.926;73.496;2023-04-24T06:10:34;18.65;;;4.82;;
59907;SDS011;61804;54.926;73.496;2023-04-24T06:13:02;26.95;;;8.40;;
59907;SDS011;61804;54.926;73.496;2023-04-24T06:15:31;38.53;;;6.70;;
59907;SDS011;61804;54.926;73.496;2023-04-24T06:18:07;33.67;;;8.38;;
59907;SDS011;61804;54.926;73.496;2023-04-24T06:20:37;7.88;;;4.50;;
59907;SDS011;61804;54.926;73.496;2023-04-24T06:23:05;47.75;;;9.68;;
59907;SDS011;61804;54.926;73.496;2023-04-24T06:25:34;16.15;;;5.47;;
59907;SDS011;61804;54.926;73.496;2023-04-24T06:28:02;28.98;;;7.63;;
59907;SDS011;61804;54.926;73.496;2023-04-24T06:30:42;11.55;;;6.78;;
59907;SDS011;61804;54.926;73.496;2023-04-24T06:33:10;16.88;;;7.68;;
59907;SDS011;61804;54.926;73.496;2023-04-24T06:35:37;12.88;;;6.07;;
59907;SDS011;61804;54.926;73.496;2023-04-24T06:38:10;9.40;;;7.22;;
59907;SDS011;61804;54.926;73.496;2023-04-24T06:40:47;26.65;;;9.70;;
59907;SDS011;61804;54.926;73.496;2023-04-24T06:43:14;6.60;;;5.20;;
59907;SDS011;61804;54.926;73.496;2023-04-24T06:45:42;47.15;;;9.30;;
59907;SDS011;61804;54.926;73.496;2023-04-24T06:48:10;15.93;;;3.55;;
59907;SDS011;61804;54.926;73.496;2023-04-24T06:50:38;6.82;;;3.75;;
59907;SDS011;61804;54.926;73.496;2023-04-24T06:53:05;50.53;;;10.25;;
59907;SDS011;61804;54.926;73.496;2023-04-24T06:55:33;22.85;;;5.15;;
59907;SDS011;61804;54.926;73.496;2023-04-24T06:58:01;21.13;;;6.00;;
59907;SDS011;61804;54.926;73.496;2023-04-24T07:00:29;13.13;;;5.15;;
59907;SDS011;61804;54.926;73.496;2023-04-24T07:02:57;18.20;;;6.50;;
59907;SDS011;61804;54.926;73.496;2023-04-24T07:05:24;12.38;;;4.53;;
59907;SDS011;61804;54.926;73.496;2023-04-24T07:07:52;22.52;;;6.45;;
59907;SDS011;61804;54.926;73.496;2023-04-24T07:10:20;23.63;;;7.55;;
59907;SDS011;61804;54.926;73.496;2023-04-24T07:12:48;14.93;;;3.70;;
59907;SDS011;61804;54.926;73.496;2023-04-24T07:15:16;10.88;;;5.88;;
59907;SDS011;61804;54.926;73.496;2023-04-24T07:17:45;8.95;;;5.25;;
59907;SDS011;61804;54.926;73.496;2023-04-24T07:20:13;13.23;;;5.70;;
59907;SDS011;61804;54.926;73.496;2023-04-24T07:22:41;8.75;;;4.95;;
59907;SDS011;61804;54.926;73.496;2023-04-24T07:25:19;34.28;;;9.30;;
59907;SDS011;61804;54.926;73.496;2023-04-24T07:27:46;13.40;;;5.75;;
59907;SDS011;61804;54.926;73.496;2023-04-24T07:30:14;17.08;;;4.45;;
59907;SDS011;61804;54.926;73.496;2023-04-24T07:32:51;11.35;;;5.50;;
59907;SDS011;61804;54.926;73.496;2023-04-24T07:35:18;75.55;;;18.38;;
59907;SDS011;61804;54.926;73.496;2023-04-24T07:37:46;15.30;;;5.15;;
59907;SDS011;61804;54.926;73.496;2023-04-24T07:40:13;64.18;;;11.50;;
59907;SDS011;61804;54.926;73.496;2023-04-24T07:42:41;22.15;;;5.88;;
59907;SDS011;61804;54.926;73.496;2023-04-24T07:45:08;11.05;;;5.00;;
59907;SDS011;61804;54.926;73.496;2023-04-24T07:47:36;25.02;;;8.40;;
59907;SDS011;61804;54.926;73.496;2023-04-24T07:50:05;75.03;;;10.20;;
59907;SDS011;61804;54.926;73.496;2023-04-24T07:52:33;15.75;;;3.78;;
59907;SDS011;61804;54.926;73.496;2023-04-24T07:55:00;7.22;;;3.28;;
59907;SDS011;61804;54.926;73.496;2023-04-24T07:57:35;44.88;;;24.20;;
59907;SDS011;61804;54.926;73.496;2023-04-24T08:00:03;29.20;;;7.55;;
59907;SDS011;61804;54.926;73.496;2023-04-24T08:02:43;48.08;;;10.75;;
59907;SDS011;61804;54.926;73.496;2023-04-24T08:05:10;24.30;;;7.72;;
59907;SDS011;61804;54.926;73.496;2023-04-24T08:07:38;8.75;;;4.00;;
59907;SDS011;61804;54.926;73.496;2023-04-24T08:10:06;9.45;;;3.85;;
59907;SDS011;61804;54.926;73.496;2023-04-24T08:12:44;5.85;;;3.85;;
59907;SDS011;61804;54.926;73.496;2023-04-24T08:15:13;26.15;;;7.90;;
59907;SDS011;61804;54.926;73.496;2023-04-24T08:17:41;12.68;;;4.53;;
59907;SDS011;61804;54.926;73.496;2023-04-24T08:20:10;8.88;;;5.15;;
59907;SDS011;61804;54.926;73.496;2023-04-24T08:22:45;12.45;;;6.43;;
59907;SDS011;61804;54.926;73.496;2023-04-24T08:25:14;44.20;;;9.00;;
59907;SDS011;61804;54.926;73.496;2023-04-24T08:27:42;23.02;;;8.93;;
59907;SDS011;61804;54.926;73.496;2023-04-24T08:30:10;19.63;;;6.78;;
59907;SDS011;61804;54.926;73.496;2023-04-24T08:32:38;19.67;;;6.60;;
59907;SDS011;61804;54.926;73.496;2023-04-24T08:35:08;16.77;;;7.00;;
59907;SDS011;61804;54.926;73.496;2023-04-24T08:37:36;15.05;;;6.50;;
59907;SDS011;61804;54.926;73.496;2023-04-24T08:40:06;12.88;;;7.07;;
59907;SDS011;61804;54.926;73.496;2023-04-24T08:42:34;12.93;;;6.75;;
59907;SDS011;61804;54.926;73.496;2023-04-24T08:45:02;8.27;;;5.18;;
59907;SDS011;61804;54.926;73.496;2023-04-24T08:47:31;12.30;;;5.22;;
59907;SDS011;61804;54.926;73.496;2023-04-24T08:50:00;16.17;;;5.35;;
59907;SDS011;61804;54.926;73.496;2023-04-24T08:52:29;10.88;;;4.93;;
59907;SDS011;61804;54.926;73.496;2023-04-24T08:55:07;32.42;;;7.65;;
59907;SDS011;61804;54.926;73.496;2023-04-24T08:57:39;12.20;;;6.22;;
59907;SDS011;61804;54.926;73.496;2023-04-24T09:00:07;14.05;;;6.28;;
59907;SDS011;61804;54.926;73.496;2023-04-24T09:02:35;23.00;;;6.00;;
59907;SDS011;61804;54.926;73.496;2023-04-24T09:05:08;32.28;;;7.13;;
59907;SDS011;61804;54.926;73.496;2023-04-24T09:07:36;58.08;;;10.85;;
59907;SDS011;61804;54.926;73.496;2023-04-24T09:10:12;9.52;;;4.32;;
59907;SDS011;61804;54.926;73.496;2023-04-24T09:12:39;24.67;;;5.93;;
59907;SDS011;61804;54.926;73.496;2023-04-24T09:15:07;22.45;;;6.38;;
59907;SDS011;61804;54.926;73.496;2023-04-24T09:17:35;35.95;;;10.82;;
59907;SDS011;61804;54.926;73.496;2023-04-24T09:20:03;19.35;;;5.07;;
59907;SDS011;61804;54.926;73.496;2023-04-24T09:22:31;24.48;;;8.30;;
59907;SDS011;61804;54.926;73.496;2023-04-24T09:25:05;9.18;;;2.95;;
59907;SDS011;61804;54.926;73.496;2023-04-24T09:30:02;4.75;;;2.17;;
59907;SDS011;61804;54.926;73.496;2023-04-24T09:32:30;7.10;;;3.63;;
59907;SDS011;61804;54.926;73.496;2023-04-24T09:35:05;4.05;;;2.78;;
59907;SDS011;61804;54.926;73.496;2023-04-24T09:37:40;12.52;;;4.88;;
59907;SDS011;61804;54.926;73.496;2023-04-24T09:40:12;18.73;;;4.00;;
59907;SDS011;61804;54.926;73.496;2023-04-24T09:42:51;6.95;;;2.15;;
59907;SDS011;61804;54.926;73.496;2023-04-24T09:45:35;18.52;;;4.88;;
59907;SDS011;61804;54.926;73.496;2023-04-24T09:48:10;11.35;;;3.72;;
59907;SDS011;61804;54.926;73.496;2023-04-24T09:50:37;13.15;;;4.38;;
59907;SDS011;61804;54.926;73.496;2023-04-24T09:53:05;19.45;;;4.65;;
59907;SDS011;61804;54.926;73.496;2023-04-24T09:55:40;33.75;;;5.35;;
59907;SDS011;61804;54.926;73.496;2023-04-24T09:58:12;30.77;;;6.20;;
59907;SDS011;61804;54.926;73.496;2023-04-24T10:00:40;55.92;;;9.02;;
59907;SDS011;61804;54.926;73.496;2023-04-24T10:03:10;10.63;;;6.22;;
59907;SDS011;61804;54.926;73.496;2023-04-24T10:05:40;18.85;;;6.30;;
59907;SDS011;61804;54.926;73.496;2023-04-24T10:08:08;8.32;;;2.47;;
59907;SDS011;61804;54.926;73.496;2023-04-24T10:10:40;12.18;;;3.22;;
59907;SDS011;61804;54.926;73.496;2023-04-24T10:13:08;16.23;;;5.35;;
59907;SDS011;61804;54.926;73.496;2023-04-24T10:15:37;15.45;;;4.45;;
59907;SDS011;61804;54.926;73.496;2023-04-24T10:18:05;9.02;;;3.83;;
59907;SDS011;61804;54.926;73.496;2023-04-24T10:20:36;13.40;;;5.32;;
59907;SDS011;61804;54.926;73.496;2023-04-24T10:23:03;28.98;;;5.13;;
59907;SDS011;61804;54.926;73.496;2023-04-24T10:25:32;19.15;;;3.92;;
59907;SDS011;61804;54.926;73.496;2023-04-24T10:28:00;19.20;;;5.43;;
59907;SDS011;61804;54.926;73.496;2023-04-24T10:30:34;9.57;;;3.50;;
59907;SDS011;61804;54.926;73.496;2023-04-24T10:33:05;3.30;;;1.52;;
59907;SDS011;61804;54.926;73.496;2023-04-24T10:35:35;27.65;;;5.50;;
59907;SDS011;61804;54.926;73.496;2023-04-24T10:38:05;16.65;;;4.97;;
59907;SDS011;61804;54.926;73.496;2023-04-24T10:40:37;48.23;;;7.73;;
59907;SDS011;61804;54.926;73.496;2023-04-24T10:43:05;20.70;;;7.45;;
59907;SDS011;61804;54.926;73.496;2023-04-24T10:48:54;31.15;;;8.65;;
59907;SDS011;61804;54.926;73.496;2023-04-24T10:51:22;22.90;;;5.43;;
59907;SDS011;61804;54.926;73.496;2023-04-24T10:53:50;26.70;;;9.43;;
59907;SDS011;61804;54.926;73.496;2023-04-24T10:56:18;49.15;;;10.27;;
59907;SDS011;61804;54.926;73.496;2023-04-24T10:58:49;17.17;;;4.75;;
59907;SDS011;61804;54.926;73.496;2023-04-24T11:01:25;14.75;;;3.28;;
59907;SDS011;61804;54.926;73.496;2023-04-24T11:04:03;10.55;;;3.13;;
59907;SDS011;61804;54.926;73.496;2023-04-24T11:06:34;24.13;;;5.07;;
59907;SDS011;61804;54.926;73.496;2023-04-24T11:09:05;36.85;;;6.72;;
59907;SDS011;61804;54.926;73.496;2023-04-24T11:11:38;39.83;;;4.25;;
59907;SDS011;61804;54.926;73.496;2023-04-24T11:14:07;28.02;;;7.15;;
59907;SDS011;61804;54.926;73.496;2023-04-24T11:16:47;37.17;;;7.07;;
59907;SDS011;61804;54.926;73.496;2023-04-24T11:19:24;24.98;;;4.82;;
59907;SDS011;61804;54.926;73.496;2023-04-24T11:22:13;42.70;;;4.82;;
59907;SDS011;61804;54.926;73.496;2023-04-24T11:27:22;20.95;;;4.95;;
59907;SDS011;61804;54.926;73.496;2023-04-24T11:30:01;3.88;;;2.05;;
59907;SDS011;61804;54.926;73.496;2023-04-24T11:37:43;15.57;;;4.95;;
59907;SDS011;61804;54.926;73.496;2023-04-24T11:40:13;6.43;;;3.25;;
59907;SDS011;61804;54.926;73.496;2023-04-24T11:42:44;10.05;;;3.90;;
59907;SDS011;61804;54.926;73.496;2023-04-24T11:45:13;7.00;;;3.30;;
59907;SDS011;61804;54.926;73.496;2023-04-24T11:47:40;26.67;;;10.27;;
59907;SDS011;61804;54.926;73.496;2023-04-24T11:50:09;9.77;;;2.47;;
59907;SDS011;61804;54.926;73.496;2023-04-24T11:52:38;42.50;;;9.02;;
59907;SDS011;61804;54.926;73.496;2023-04-24T11:55:07;15.20;;;3.25;;
59907;SDS011;61804;54.926;73.496;2023-04-24T11:57:45;12.07;;;1.92;;
59907;SDS011;61804;54.926;73.496;2023-04-24T12:00:21;11.18;;;4.63;;
59907;SDS011;61804;54.926;73.496;2023-04-24T12:02:49;13.93;;;6.43;;
59907;SDS011;61804;54.926;73.496;2023-04-24T12:05:22;12.85;;;4.63;;
59907;SDS011;61804;54.926;73.496;2023-04-24T12:07:54;6.53;;;2.60;;
59907;SDS011;61804;54.926;73.496;2023-04-24T12:10:22;33.70;;;4.72;;
59907;SDS011;61804;54.926;73.496;2023-04-24T12:12:55;24.17;;;4.53;;
59907;SDS011;61804;54.926;73.496;2023-04-24T12:15:23;7.55;;;3.42;;
59907;SDS011;61804;54.926;73.496;2023-04-24T12:17:51;25.08;;;4.20;;
59907;SDS011;61804;54.926;73.496;2023-04-24T12:20:23;8.70;;;2.55;;
59907;SDS011;61804;54.926;73.496;2023-04-24T12:22:52;11.75;;;4.10;;
59907;SDS011;61804;54.926;73.496;2023-04-24T12:25:23;6.13;;;4.55;;
59907;SDS011;61804;54.926;73.496;2023-04-24T12:30:27;7.65;;;3.42;;
59907;SDS011;61804;54.926;73.496;2023-04-24T12:33:06;12.93;;;3.13;;
59907;SDS011;61804;54.926;73.496;2023-04-24T12:35:34;5.00;;;2.00;;
59907;SDS011;61804;54.926;73.496;2023-04-24T12:38:05;35.55;;;4.65;;
59907;SDS011;61804;54.926;73.496;2023-04-24T12:40:33;10.82;;;3.90;;
59907;SDS011;61804;54.926;73.496;2023-04-24T12:43:17;8.43;;;2.35;;
59907;SDS011;61804;54.926;73.496;2023-04-24T12:45:47;12.57;;;3.47;;
59907;SDS011;61804;54.926;73.496;2023-04-24T12:48:15;11.82;;;3.90;;
59907;SDS011;61804;54.926;73.496;2023-04-24T12:50:43;18.55;;;6.88;;
59907;SDS011;61804;54.926;73.496;2023-04-24T12:53:11;9.38;;;4.07;;
59907;SDS011;61804;54.926;73.496;2023-04-24T12:55:43;36.20;;;7.15;;
59907;SDS011;61804;54.926;73.496;2023-04-24T12:58:12;17.10;;;5.35;;
59907;SDS011;61804;54.926;73.496;2023-04-24T13:00:49;20.90;;;4.70;;
59907;SDS011;61804;54.926;73.496;2023-04-24T13:03:17;9.75;;;3.78;;
59907;SDS011;61804;54.926;73.496;2023-04-24T13:05:45;9.82;;;4.05;;
59907;SDS011;61804;54.926;73.496;2023-04-24T13:08:12;15.98;;;3.45;;
59907;SDS011;61804;54.926;73.496;2023-04-24T13:10:39;15.98;;;3.78;;
59907;SDS011;61804;54.926;73.496;2023-04-24T13:13:07;33.92;;;9.18;;
59907;SDS011;61804;54.926;73.496;2023-04-24T13:15:35;43.28;;;5.97;;
59907;SDS011;61804;54.926;73.496;2023-04-24T13:18:03;16.33;;;5.35;;
59907;SDS011;61804;54.926;73.496;2023-04-24T13:20:31;11.70;;;4.95;;
59907;SDS011;61804;54.926;73.496;2023-04-24T13:23:00;15.27;;;4.30;;
59907;SDS011;61804;54.926;73.496;2023-04-24T13:25:38;21.25;;;5.57;;
59907;SDS011;61804;54.926;73.496;2023-04-24T13:28:15;15.10;;;4.15;;
59907;SDS011;61804;54.926;73.496;2023-04-24T13:30:45;21.98;;;5.78;;
59907;SDS011;61804;54.926;73.496;2023-04-24T13:33:15;12.30;;;4.15;;
59907;SDS011;61804;54.926;73.496;2023-04-24T13:35:53;7.43;;;1.95;;
59907;SDS011;61804;54.926;73.496;2023-04-24T13:38:20;9.27;;;3.90;;
59907;SDS011;61804;54.926;73.496;2023-04-24T13:40:49;17.02;;;4.55;;
59907;SDS011;61804;54.926;73.496;2023-04-24T13:43:22;7.53;;;3.20;;
59907;SDS011;61804;54.926;73.496;2023-04-24T13:45:50;10.93;;;4.20;;
59907;SDS011;61804;54.926;73.496;2023-04-24T13:48:18;9.63;;;3.65;;
59907;SDS011;61804;54.926;73.496;2023-04-24T13:50:45;9.35;;;2.90;;
59907;SDS011;61804;54.926;73.496;2023-04-24T13:53:16;13.40;;;3.25;;
59907;SDS011;61804;54.926;73.496;2023-04-24T13:55:44;15.40;;;3.63;;
59907;SDS011;61804;54.926;73.496;2023-04-24T13:58:12;14.55;;;2.33;;
59907;SDS011;61804;54.926;73.496;2023-04-24T14:00:47;9.70;;;2.95;;
59907;SDS011;61804;54.926;73.496;2023-04-24T14:03:14;11.43;;;2.42;;
59907;SDS011;61804;54.926;73.496;2023-04-24T14:05:42;18.13;;;4.75;;
59907;SDS011;61804;54.926;73.496;2023-04-24T14:08:10;10.20;;;2.70;;
59907;SDS011;61804;54.926;73.496;2023-04-24T14:10:41;18.35;;;5.32;;
59907;SDS011;61804;54.926;73.496;2023-04-24T14:13:11;12.25;;;4.00;;
59907;SDS011;61804;54.926;73.496;2023-04-24T14:15:39;7.35;;;3.15;;
59907;SDS011;61804;54.926;73.496;2023-04-24T14:18:07;9.98;;;4.03;;
59907;SDS011;61804;54.926;73.496;2023-04-24T14:20:44;10.07;;;4.38;;
59907;SDS011;61804;54.926;73.496;2023-04-24T14:23:13;12.75;;;3.38;;
59907;SDS011;61804;54.926;73.496;2023-04-24T14:25:40;14.38;;;3.92;;
59907;SDS011;61804;54.926;73.496;2023-04-24T14:28:10;7.72;;;2.88;;
59907;SDS011;61804;54.926;73.496;2023-04-24T14:30:38;11.15;;;3.80;;
59907;SDS011;61804;54.926;73.496;2023-04-24T14:33:07;15.95;;;2.90;;
59907;SDS011;61804;54.926;73.496;2023-04-24T14:35:35;16.42;;;3.90;;
59907;SDS011;61804;54.926;73.496;2023-04-24T14:38:02;8.55;;;3.15;;
59907;SDS011;61804;54.926;73.496;2023-04-24T14:40:29;3.60;;;2.42;;
59907;SDS011;61804;54.926;73.496;2023-04-24T14:42:58;17.52;;;4.53;;
59907;SDS011;61804;54.926;73.496;2023-04-24T14:45:25;8.05;;;3.60;;
59907;SDS011;61804;54.926;73.496;2023-04-24T14:47:58;9.68;;;4.32;;
59907;SDS011;61804;54.926;73.496;2023-04-24T14:50:25;8.88;;;4.72;;
59907;SDS011;61804;54.926;73.496;2023-04-24T14:52:56;15.20;;;5.82;;
59907;SDS011;61804;54.926;73.496;2023-04-24T14:55:28;28.77;;;5.95;;
59907;SDS011;61804;54.926;73.496;2023-04-24T14:57:55;15.18;;;4.78;;
59907;SDS011;61804;54.926;73.496;2023-04-24T15:00:23;8.10;;;3.35;;